Time;durP1;ratioP1;P1;durP2;ratioP2;P2;SDS_P1;SDS_P2;PMS_P1;PMS_P2;Temp;Humidity;BMP_temperature;BMP_pressure;BME280_temperature;BME280_humidity;BME280_pressure;Samples;Min_cycle;Max_cycle;Signal;HPM_P1;HPM_P2
2022/09/11 00:00:53;;;;;;;3.35;3.13;;;;;;;;;;5073100;28;20619;-84
2022/09/11 00:03:22;;;;;;;4.80;4.30;;;;;;;;;;5075753;28;20287;-84
2022/09/11 00:05:49;;;;;;;3.63;3.33;;;;;;;;;;5077144;28;20216;-84
2022/09/11 00:08:21;;;;;;;4.38;4.07;;;;;;;;;;5076874;28;20291;-83
2022/09/11 00:10:49;;;;;;;4.18;3.85;;;;;;;;;;5076713;28;20189;-84
2022/09/11 00:13:20;;;;;;;5.07;4.57;;;;;;;;;;5076541;28;20231;-84
2022/09/11 00:15:49;;;;;;;4.03;3.72;;;;;;;;;;5076297;28;20197;-84
2022/09/11 00:18:20;;;;;;;3.42;3.13;;;;;;;;;;5076355;28;20203;-83
2022/09/11 00:20:49;;;;;;;4.32;3.35;;;;;;;;;;5075997;28;20578;-84
2022/09/11 00:23:19;;;;;;;2.67;2.47;;;;;;;;;;5076612;28;20224;-84
2022/09/11 00:25:47;;;;;;;4.25;2.90;;;;;;;;;;5076727;28;20683;-84
2022/09/11 00:28:18;;;;;;;3.88;3.15;;;;;;;;;;5076263;28;20594;-84
2022/09/11 00:30:47;;;;;;;4.35;4.00;;;;;;;;;;5076201;28;20965;-84
2022/09/11 00:33:16;;;;;;;4.13;3.83;;;;;;;;;;5075909;28;20772;-84
2022/09/11 00:35:43;;;;;;;3.85;3.55;;;;;;;;;;5075962;28;20209;-84
2022/09/11 00:38:11;;;;;;;4.85;4.15;;;;;;;;;;5075850;28;20205;-84
2022/09/11 00:40:46;;;;;;;4.43;4.10;;;;;;;;;;5076410;28;20221;-85
2022/09/11 00:43:16;;;;;;;5.35;4.90;;;;;;;;;;5076283;28;20197;-83
2022/09/11 00:45:44;;;;;;;5.15;4.75;;;;;;;;;;5075608;28;20212;-83
2022/09/11 00:48:14;;;;;;;4.88;4.47;;;;;;;;;;5076175;28;20201;-84
2022/09/11 00:50:43;;;;;;;5.30;4.85;;;;;;;;;;5075666;28;20216;-84
2022/09/11 00:53:12;;;;;;;6.57;5.97;;;;;;;;;;5075814;28;20295;-84
2022/09/11 00:55:43;;;;;;;7.35;5.70;;;;;;;;;;5074616;28;20337;-83
2022/09/11 00:58:16;;;;;;;7.93;7.13;;;;;;;;;;5075717;28;20211;-83
2022/09/11 01:00:45;;;;;;;6.95;5.88;;;;;;;;;;5075703;28;20197;-84
2022/09/11 01:03:13;;;;;;;7.57;6.95;;;;;;;;;;5075233;28;20208;-84
2022/09/11 01:05:43;;;;;;;7.25;6.65;;;;;;;;;;5075124;28;20197;-83
2022/09/11 01:08:13;;;;;;;9.20;8.40;;;;;;;;;;5074951;28;20201;-84
2022/09/11 01:10:56;;;;;;;8.90;8.10;;;;;;;;;;5075699;28;20705;-83
2022/09/11 01:13:32;;;;;;;8.93;8.13;;;;;;;;;;5074967;28;20209;-83
2022/09/11 01:16:11;;;;;;;9.20;8.35;;;;;;;;;;5075327;28;20213;-84
2022/09/11 01:18:43;;;;;;;9.65;8.15;;;;;;;;;;5074383;28;21159;-83
2022/09/11 01:21:51;;;;;;;10.18;9.27;;;;;;;;;;5075463;28;20197;-84
2022/09/11 01:24:38;;;;;;;10.60;9.55;;;;;;;;;;5068695;28;20282;-85
2022/09/11 01:27:42;;;;;;;9.02;8.20;;;;;;;;;;5074932;28;20292;-83
2022/09/11 01:30:13;;;;;;;9.48;8.63;;;;;;;;;;5071984;28;20234;-84
2022/09/11 01:33:02;;;;;;;9.57;8.70;;;;;;;;;;5075135;28;20201;-83
2022/09/11 01:35:41;;;;;;;10.25;9.30;;;;;;;;;;5074497;28;20225;-84
2022/09/11 01:38:14;;;;;;;11.68;10.57;;;;;;;;;;5074015;28;20206;-84
2022/09/11 01:40:50;;;;;;;10.27;9.18;;;;;;;;;;5074343;28;20221;-83
2022/09/11 01:43:23;;;;;;;11.07;10.00;;;;;;;;;;5074575;28;20204;-84
2022/09/11 01:45:52;;;;;;;10.32;9.43;;;;;;;;;;5073760;28;20207;-84
2022/09/11 01:48:25;;;;;;;10.70;9.70;;;;;;;;;;5073712;28;20616;-84
2022/09/11 01:50:54;;;;;;;10.43;9.52;;;;;;;;;;5074208;28;20205;-84
2022/09/11 01:53:26;;;;;;;9.10;8.20;;;;;;;;;;5074775;28;20211;-84
2022/09/11 01:55:57;;;;;;;10.95;9.95;;;;;;;;;;5074064;28;20235;-84
2022/09/11 01:58:28;;;;;;;9.68;8.75;;;;;;;;;;5074018;28;20204;-84
2022/09/11 02:01:01;;;;;;;10.57;9.57;;;;;;;;;;5074226;28;20741;-84
2022/09/11 02:03:35;;;;;;;9.52;8.63;;;;;;;;;;5074686;28;20200;-83
2022/09/11 02:06:08;;;;;;;10.00;9.00;;;;;;;;;;5074050;28;20625;-83
2022/09/11 02:08:42;;;;;;;10.23;9.23;;;;;;;;;;5073967;28;20201;-83
2022/09/11 02:11:12;;;;;;;9.63;8.73;;;;;;;;;;5073985;28;20224;-83
2022/09/11 02:13:50;;;;;;;9.05;8.23;;;;;;;;;;5073622;28;20661;-84
2022/09/11 02:16:28;;;;;;;10.25;9.25;;;;;;;;;;5073766;28;20225;-84
2022/09/11 02:19:00;;;;;;;10.43;9.48;;;;;;;;;;5073501;28;20221;-84
2022/09/11 02:21:28;;;;;;;9.82;8.90;;;;;;;;;;5073486;28;20193;-83
2022/09/11 02:23:55;;;;;;;11.23;9.93;;;;;;;;;;5073405;28;20287;-83
2022/09/11 02:26:25;;;;;;;10.80;9.48;;;;;;;;;;5073312;28;20217;-82
2022/09/11 02:28:54;;;;;;;11.02;9.95;;;;;;;;;;5074111;28;20601;-84
2022/09/11 02:31:23;;;;;;;10.73;9.73;;;;;;;;;;5073962;28;20207;-85
2022/09/11 02:33:51;;;;;;;10.50;9.50;;;;;;;;;;5074391;28;20215;-84
2022/09/11 02:36:39;;;;;;;11.00;10.00;;;;;;;;;;5073823;28;20217;-83
2022/09/11 02:39:34;;;;;;;10.90;9.90;;;;;;;;;;5074144;28;20228;-84
2022/09/11 02:42:29;;;;;;;9.50;8.60;;;;;;;;;;5074152;28;20288;-83
2022/09/11 02:45:07;;;;;;;9.63;8.73;;;;;;;;;;5060062;28;20215;-84
2022/09/11 02:47:45;;;;;;;11.18;10.10;;;;;;;;;;5073384;28;20211;-84
2022/09/11 02:50:22;;;;;;;10.77;9.70;;;;;;;;;;5073673;28;20296;-84
2022/09/11 02:52:58;;;;;;;10.45;9.45;;;;;;;;;;5073761;28;20230;-85
2022/09/11 02:55:34;;;;;;;11.63;10.43;;;;;;;;;;5073429;28;20232;-83
2022/09/11 02:58:05;;;;;;;11.23;10.02;;;;;;;;;;5073574;28;20291;-84
2022/09/11 03:00:34;;;;;;;11.25;10.25;;;;;;;;;;5073711;28;20225;-83
2022/09/11 03:03:03;;;;;;;11.27;10.18;;;;;;;;;;5073838;28;20208;-85
2022/09/11 03:05:30;;;;;;;11.63;10.45;;;;;;;;;;5074254;28;20632;-84
2022/09/11 03:07:58;;;;;;;14.15;12.57;;;;;;;;;;5072883;28;20205;-83
2022/09/11 03:10:26;;;;;;;13.02;11.70;;;;;;;;;;5073777;28;20311;-83
2022/09/11 03:12:54;;;;;;;13.32;12.02;;;;;;;;;;5073533;28;20250;-84
2022/09/11 03:15:22;;;;;;;12.77;11.48;;;;;;;;;;5073464;28;20274;-84
2022/09/11 03:17:51;;;;;;;12.38;11.15;;;;;;;;;;5073218;28;20227;-84
2022/09/11 03:20:19;;;;;;;14.02;12.63;;;;;;;;;;5072884;28;20319;-84
2022/09/11 03:22:47;;;;;;;14.70;13.23;;;;;;;;;;5072752;28;20681;-84
2022/09/11 03:25:15;;;;;;;15.85;14.27;;;;;;;;;;5073008;28;20197;-84
2022/09/11 03:27:42;;;;;;;15.50;12.88;;;;;;;;;;5072730;28;20201;-84
2022/09/11 03:30:11;;;;;;;14.20;12.65;;;;;;;;;;5072896;28;20221;-83
2022/09/11 03:32:38;;;;;;;15.40;13.88;;;;;;;;;;5072622;28;20205;-84
2022/09/11 03:35:08;;;;;;;15.40;13.60;;;;;;;;;;5072678;28;20296;-83
2022/09/11 03:37:35;;;;;;;14.65;13.18;;;;;;;;;;5076625;28;20211;-84
2022/09/11 03:40:03;;;;;;;16.83;15.13;;;;;;;;;;5076817;28;20732;-84
2022/09/11 03:42:32;;;;;;;15.45;13.85;;;;;;;;;;5076296;28;20735;-83
2022/09/11 03:44:59;;;;;;;14.32;12.82;;;;;;;;;;5076602;28;20752;-84
2022/09/11 03:47:27;;;;;;;14.18;12.77;;;;;;;;;;5076356;28;20307;-83
2022/09/11 03:49:54;;;;;;;14.50;12.85;;;;;;;;;;5076466;28;20885;-84
2022/09/11 03:52:23;;;;;;;16.05;14.38;;;;;;;;;;5076692;28;20193;-83
2022/09/11 03:54:51;;;;;;;14.05;12.50;;;;;;;;;;5076477;28;20207;-84
2022/09/11 03:57:19;;;;;;;16.55;14.82;;;;;;;;;;5076352;28;20311;-84
2022/09/11 03:59:46;;;;;;;14.65;13.18;;;;;;;;;;5076326;28;20326;-83
2022/09/11 04:02:14;;;;;;;13.80;12.48;;;;;;;;;;5076283;28;20208;-84
2022/09/11 04:04:41;;;;;;;14.73;13.32;;;;;;;;;;5076454;28;20260;-84
2022/09/11 04:07:08;;;;;;;15.85;14.25;;;;;;;;;;5075842;28;20207;-83
2022/09/11 04:09:37;;;;;;;13.75;12.40;;;;;;;;;;5075810;28;20231;-82
2022/09/11 04:12:05;;;;;;;12.38;11.18;;;;;;;;;;5075515;28;20201;-85
2022/09/11 04:14:33;;;;;;;14.48;12.98;;;;;;;;;;5076289;28;20266;-83
2022/09/11 04:17:00;;;;;;;14.57;13.18;;;;;;;;;;5075718;28;20693;-84
2022/09/11 04:19:28;;;;;;;14.57;13.18;;;;;;;;;;5076068;28;20275;-83
2022/09/11 04:21:55;;;;;;;14.65;13.02;;;;;;;;;;5075614;28;20657;-83
2022/09/11 04:24:23;;;;;;;14.98;13.45;;;;;;;;;;5075857;28;20224;-84
2022/09/11 04:26:52;;;;;;;11.68;10.55;;;;;;;;;;5075499;28;20201;-84
2022/09/11 04:29:21;;;;;;;13.55;12.18;;;;;;;;;;5075233;28;20299;-83
2022/09/11 04:31:48;;;;;;;12.40;11.20;;;;;;;;;;5075907;28;20635;-83
2022/09/11 04:34:16;;;;;;;14.05;12.68;;;;;;;;;;5075689;28;20204;-84
2022/09/11 04:36:43;;;;;;;14.10;12.68;;;;;;;;;;5075054;28;20231;-85
2022/09/11 04:39:12;;;;;;;13.77;12.43;;;;;;;;;;5074762;28;20232;-83
2022/09/11 04:41:39;;;;;;;13.50;12.18;;;;;;;;;;5075171;28;20200;-83
2022/09/11 04:44:08;;;;;;;14.25;12.00;;;;;;;;;;5075398;28;20304;-83
2022/09/11 04:46:36;;;;;;;13.65;12.25;;;;;;;;;;5075412;28;20304;-84
2022/09/11 04:49:03;;;;;;;11.90;10.65;;;;;;;;;;5074293;28;20319;-84
2022/09/11 04:51:33;;;;;;;12.20;10.73;;;;;;;;;;5075379;28;20290;-84
2022/09/11 04:54:01;;;;;;;13.45;11.73;;;;;;;;;;5076064;28;20201;-83
2022/09/11 04:56:33;;;;;;;15.68;13.93;;;;;;;;;;5075091;28;20319;-83
2022/09/11 04:59:02;;;;;;;13.55;11.82;;;;;;;;;;5075336;28;20240;-84
2022/09/11 05:01:32;;;;;;;13.45;12.15;;;;;;;;;;5075332;28;20211;-83
2022/09/11 05:04:00;;;;;;;14.63;12.88;;;;;;;;;;5075169;28;20715;-84
2022/09/11 05:06:29;;;;;;;13.93;12.52;;;;;;;;;;5074839;28;20193;-83
2022/09/11 05:09:00;;;;;;;13.93;12.48;;;;;;;;;;5075087;28;20260;-83
2022/09/11 05:11:28;;;;;;;15.63;13.43;;;;;;;;;;5075132;28;20201;-83
2022/09/11 05:13:58;;;;;;;13.60;12.20;;;;;;;;;;5075474;28;20200;-84
2022/09/11 05:16:27;;;;;;;13.80;12.30;;;;;;;;;;5074586;28;20221;-84
2022/09/11 05:18:58;;;;;;;16.20;12.70;;;;;;;;;;5075196;28;20311;-84
2022/09/11 05:21:27;;;;;;;9.80;8.80;;;;;;;;;;5075346;28;20628;-83
2022/09/11 05:23:57;;;;;;;13.18;11.32;;;;;;;;;;5075141;28;20232;-85
2022/09/11 05:26:28;;;;;;;15.80;14.10;;;;;;;;;;5074160;28;20209;-83
2022/09/11 05:28:57;;;;;;;15.73;13.82;;;;;;;;;;5074319;28;20311;-84
2022/09/11 05:31:25;;;;;;;15.95;14.32;;;;;;;;;;5074352;28;20189;-84
2022/09/11 05:33:56;;;;;;;14.13;12.70;;;;;;;;;;5074633;28;20296;-84
2022/09/11 05:36:25;;;;;;;13.82;12.43;;;;;;;;;;5074062;28;20209;-83
2022/09/11 05:38:52;;;;;;;15.38;13.75;;;;;;;;;;5073783;28;20776;-82
2022/09/11 05:41:20;;;;;;;13.70;12.30;;;;;;;;;;5073898;28;20224;-79
2022/09/11 05:43:48;;;;;;;14.20;12.75;;;;;;;;;;5073025;28;20687;-79
2022/09/11 05:46:17;;;;;;;13.23;11.20;;;;;;;;;;5072894;28;20200;-79
2022/09/11 05:48:45;;;;;;;12.35;11.15;;;;;;;;;;5073295;28;20225;-79
2022/09/11 05:51:15;;;;;;;13.27;11.98;;;;;;;;;;5073555;28;20201;-79
2022/09/11 05:53:44;;;;;;;11.85;10.63;;;;;;;;;;5073292;28;20207;-78
2022/09/11 05:56:15;;;;;;;8.90;8.05;;;;;;;;;;5073184;28;20215;-80
2022/09/11 05:58:43;;;;;;;11.90;10.70;;;;;;;;;;5071982;28;20229;-79
2022/09/11 06:01:13;;;;;;;11.10;9.88;;;;;;;;;;5072494;28;20209;-80
2022/09/11 06:03:41;;;;;;;10.25;9.23;;;;;;;;;;5073075;28;20209;-80
2022/09/11 06:06:12;;;;;;;11.02;9.77;;;;;;;;;;5073023;28;20205;-79
2022/09/11 06:08:42;;;;;;;9.32;8.07;;;;;;;;;;5072960;28;20632;-80
2022/09/11 06:11:12;;;;;;;9.15;8.25;;;;;;;;;;5072832;28;20204;-80
2022/09/11 06:13:41;;;;;;;11.23;9.23;;;;;;;;;;5072993;28;20231;-80
2022/09/11 06:16:10;;;;;;;10.50;9.50;;;;;;;;;;5073222;28;20207;-80
2022/09/11 06:18:38;;;;;;;10.35;9.38;;;;;;;;;;5072394;28;20237;-79
2022/09/11 06:21:08;;;;;;;10.35;9.32;;;;;;;;;;5072746;28;20201;-79
2022/09/11 06:23:38;;;;;;;11.63;9.57;;;;;;;;;;5072701;28;20201;-79
2022/09/11 06:26:09;;;;;;;11.80;10.60;;;;;;;;;;5072880;28;20267;-81
2022/09/11 06:28:36;;;;;;;10.63;9.48;;;;;;;;;;5072579;28;20197;-79
2022/09/11 06:31:05;;;;;;;9.68;8.70;;;;;;;;;;5072743;28;20203;-79
2022/09/11 06:33:34;;;;;;;9.30;8.43;;;;;;;;;;5072677;28;20201;-79
2022/09/11 06:36:04;;;;;;;11.30;9.20;;;;;;;;;;5072724;28;20213;-79
2022/09/11 06:38:32;;;;;;;14.98;10.40;;;;;;;;;;5072401;28;20948;-79
2022/09/11 06:41:02;;;;;;;10.65;9.27;;;;;;;;;;5072729;28;20687;-79
2022/09/11 06:43:32;;;;;;;10.32;9.38;;;;;;;;;;5072760;28;20197;-79
2022/09/11 06:46:04;;;;;;;10.23;9.23;;;;;;;;;;5072675;28;20201;-79
2022/09/11 06:48:32;;;;;;;10.48;9.30;;;;;;;;;;5071995;28;20197;-78
2022/09/11 06:51:03;;;;;;;10.18;9.18;;;;;;;;;;5072553;28;20201;-79
2022/09/11 06:53:31;;;;;;;12.45;10.20;;;;;;;;;;5072301;28;20563;-78
2022/09/11 06:56:02;;;;;;;10.43;9.48;;;;;;;;;;5072099;28;20624;-79
2022/09/11 06:58:31;;;;;;;8.95;8.10;;;;;;;;;;5071588;28;20229;-79
2022/09/11 07:01:03;;;;;;;9.40;8.45;;;;;;;;;;5072061;28;20197;-79
2022/09/11 07:03:31;;;;;;;10.23;9.23;;;;;;;;;;5072344;28;20197;-80
2022/09/11 07:05:58;;;;;;;10.63;9.43;;;;;;;;;;5072022;28;20219;-80
2022/09/11 07:08:26;;;;;;;10.23;9.32;;;;;;;;;;5072654;28;20197;-79
2022/09/11 07:10:53;;;;;;;8.15;7.35;;;;;;;;;;5073354;28;20204;-78
2022/09/11 07:13:23;;;;;;;10.63;9.52;;;;;;;;;;5076187;28;20697;-80
2022/09/11 07:16:00;;;;;;;10.45;9.35;;;;;;;;;;5076369;28;20298;-81
2022/09/11 07:18:35;;;;;;;10.65;9.60;;;;;;;;;;5076796;28;20208;-78
2022/09/11 07:21:06;;;;;;;9.35;8.48;;;;;;;;;;5076518;28;20212;-80
2022/09/11 07:23:34;;;;;;;9.23;8.32;;;;;;;;;;5076159;28;20201;-80
2022/09/11 07:26:04;;;;;;;10.82;8.90;;;;;;;;;;5076112;28;20205;-79
2022/09/11 07:28:32;;;;;;;10.05;9.07;;;;;;;;;;5076191;28;20291;-79
2022/09/11 07:31:10;;;;;;;10.15;8.13;;;;;;;;;;5076507;28;20291;-80
2022/09/11 07:33:38;;;;;;;10.07;9.07;;;;;;;;;;5076253;28;20200;-79
2022/09/11 07:36:10;;;;;;;12.13;10.82;;;;;;;;;;5075860;28;20205;-79
2022/09/11 07:38:40;;;;;;;11.25;10.13;;;;;;;;;;5074910;28;20321;-79
2022/09/11 07:41:08;;;;;;;12.30;9.88;;;;;;;;;;5075863;28;20617;-80
2022/09/11 07:43:36;;;;;;;15.10;13.50;;;;;;;;;;5076038;28;20288;-80
2022/09/11 07:46:04;;;;;;;7.82;7.03;;;;;;;;;;5075608;28;20854;-80
2022/09/11 07:48:33;;;;;;;10.68;8.85;;;;;;;;;;5075224;28;20197;-80
2022/09/11 07:51:03;;;;;;;9.43;8.50;;;;;;;;;;5074932;28;20204;-80
2022/09/11 07:53:34;;;;;;;11.27;10.07;;;;;;;;;;5075000;28;20295;-80
2022/09/11 07:56:03;;;;;;;13.30;10.30;;;;;;;;;;5073243;28;20215;-79
2022/09/11 07:58:34;;;;;;;10.02;9.00;;;;;;;;;;5075357;28;20651;-79
2022/09/11 08:01:02;;;;;;;11.68;9.43;;;;;;;;;;5075064;28;20567;-79
2022/09/11 08:03:30;;;;;;;10.05;9.05;;;;;;;;;;5074751;28;20258;-79
2022/09/11 08:05:59;;;;;;;10.10;8.65;;;;;;;;;;5075088;28;20201;-79
2022/09/11 08:08:27;;;;;;;10.43;9.43;;;;;;;;;;5074735;28;20201;-78
2022/09/11 08:10:55;;;;;;;9.63;8.73;;;;;;;;;;5075122;28;20205;-78
2022/09/11 08:13:23;;;;;;;8.05;7.35;;;;;;;;;;5074944;28;20673;-79
2022/09/11 08:15:51;;;;;;;7.50;6.80;;;;;;;;;;5074602;28;20300;-80
2022/09/11 08:18:18;;;;;;;8.65;7.07;;;;;;;;;;5073944;28;20220;-79
2022/09/11 08:20:46;;;;;;;7.75;7.03;;;;;;;;;;5074934;28;20201;-79
2022/09/11 08:23:15;;;;;;;7.47;6.68;;;;;;;;;;5073516;28;20295;-80
2022/09/11 08:25:43;;;;;;;8.20;7.40;;;;;;;;;;5074704;28;20292;-80
2022/09/11 08:28:11;;;;;;;7.53;6.65;;;;;;;;;;5074694;28;20211;-79
2022/09/11 08:30:38;;;;;;;7.63;6.82;;;;;;;;;;5074328;28;20221;-79
2022/09/11 08:33:08;;;;;;;7.95;7.20;;;;;;;;;;5074884;28;20201;-78
2022/09/11 08:35:36;;;;;;;8.50;7.70;;;;;;;;;;5074129;28;20240;-79
2022/09/11 08:38:04;;;;;;;7.53;6.82;;;;;;;;;;5074127;28;20575;-79
2022/09/11 08:40:37;;;;;;;7.38;6.68;;;;;;;;;;5073982;28;20244;-79
2022/09/11 08:43:19;;;;;;;7.60;6.90;;;;;;;;;;5073936;28;20200;-79
2022/09/11 08:45:47;;;;;;;6.82;6.15;;;;;;;;;;5074322;28;20201;-79
2022/09/11 08:48:15;;;;;;;5.95;5.45;;;;;;;;;;5074328;28;20212;-79
2022/09/11 08:50:44;;;;;;;6.50;5.88;;;;;;;;;;5073859;28;20712;-79
2022/09/11 08:53:15;;;;;;;7.28;6.68;;;;;;;;;;5073871;28;20684;-79
2022/09/11 08:55:48;;;;;;;7.30;5.80;;;;;;;;;;5073584;28;20213;-80
2022/09/11 08:58:24;;;;;;;5.13;4.72;;;;;;;;;;5073459;28;20699;-80
2022/09/11 09:00:58;;;;;;;4.60;4.15;;;;;;;;;;5073898;28;20698;-80
2022/09/11 09:03:43;;;;;;;4.38;3.90;;;;;;;;;;5074079;28;20584;-79
2022/09/11 09:06:39;;;;;;;5.68;5.20;;;;;;;;;;5073502;28;20208;-79
2022/09/11 09:09:14;;;;;;;4.28;3.90;;;;;;;;;;5073816;28;20239;-80
2022/09/11 09:11:49;;;;;;;5.60;5.05;;;;;;;;;;5073772;28;20201;-80
2022/09/11 09:14:54;;;;;;;7.22;6.53;;;;;;;;;;5074107;28;20598;-80
2022/09/11 09:17:25;;;;;;;5.95;5.45;;;;;;;;;;5066474;28;20204;-79
2022/09/11 09:19:59;;;;;;;5.57;5.10;;;;;;;;;;5073532;28;20627;-79
2022/09/11 09:22:31;;;;;;;5.35;4.80;;;;;;;;;;5073011;28;20205;-79
2022/09/11 09:25:01;;;;;;;5.70;4.72;;;;;;;;;;5073389;28;20320;-80
2022/09/11 09:27:37;;;;;;;5.63;5.00;;;;;;;;;;5073232;28;20201;-79
2022/09/11 09:30:07;;;;;;;4.45;4.15;;;;;;;;;;5073412;28;20227;-80
2022/09/11 09:32:49;;;;;;;3.50;3.20;;;;;;;;;;5073017;28;20212;-79
2022/09/11 09:35:21;;;;;;;5.47;4.97;;;;;;;;;;5072863;28;20274;-80
2022/09/11 09:37:49;;;;;;;5.18;4.68;;;;;;;;;;5072905;28;20292;-80
2022/09/11 09:40:18;;;;;;;4.70;4.30;;;;;;;;;;5072740;28;20235;-80
2022/09/11 09:43:23;;;;;;;4.53;4.20;;;;;;;;;;5072779;28;20227;-80
2022/09/11 09:46:04;;;;;;;5.28;4.78;;;;;;;;;;5073230;28;20201;-79
2022/09/11 09:48:37;;;;;;;6.85;6.07;;;;;;;;;;5072838;28;20621;-80
2022/09/11 09:51:05;;;;;;;7.05;6.45;;;;;;;;;;5072726;28;20197;-80
2022/09/11 09:53:38;;;;;;;4.57;4.15;;;;;;;;;;5072442;28;20205;-79
2022/09/11 09:56:06;;;;;;;4.82;4.43;;;;;;;;;;5072590;28;20591;-80
2022/09/11 09:58:40;;;;;;;6.38;5.80;;;;;;;;;;5072541;28;20201;-80
2022/09/11 10:01:45;;;;;;;4.88;4.47;;;;;;;;;;5072843;28;20227;-80
2022/09/11 10:04:17;;;;;;;5.15;4.75;;;;;;;;;;5072506;28;20205;-79
2022/09/11 10:06:46;;;;;;;4.13;3.83;;;;;;;;;;5072309;28;20657;-79
2022/09/11 10:09:26;;;;;;;5.10;4.53;;;;;;;;;;5072518;28;20223;-79
2022/09/11 10:12:04;;;;;;;5.55;5.07;;;;;;;;;;5072493;28;20196;-80
2022/09/11 10:14:44;;;;;;;4.88;4.47;;;;;;;;;;5072502;28;20209;-79
2022/09/11 10:17:21;;;;;;;6.30;5.68;;;;;;;;;;5072610;28;20204;-79
2022/09/11 10:19:49;;;;;;;6.65;6.05;;;;;;;;;;5072422;28;20235;-80
2022/09/11 10:22:26;;;;;;;5.55;5.07;;;;;;;;;;5072753;28;20205;-80
2022/09/11 10:25:04;;;;;;;7.53;4.05;;;;;;;;;;5072189;28;20201;-79
2022/09/11 10:27:35;;;;;;;3.90;3.60;;;;;;;;;;5072221;28;20208;-80
2022/09/11 10:30:05;;;;;;;4.57;4.18;;;;;;;;;;5072209;28;20213;-80
2022/09/11 10:32:33;;;;;;;5.45;4.75;;;;;;;;;;5071987;28;20215;-80
2022/09/11 10:35:01;;;;;;;4.93;4.53;;;;;;;;;;5072466;28;20205;-79
2022/09/11 10:37:30;;;;;;;4.75;4.35;;;;;;;;;;5071850;28;20680;-80
2022/09/11 10:40:06;;;;;;;5.47;4.80;;;;;;;;;;5072026;28;20264;-78
2022/09/11 10:42:36;;;;;;;4.82;4.43;;;;;;;;;;5072229;28;20208;-80
2022/09/11 10:45:15;;;;;;;4.43;4.00;;;;;;;;;;5072484;28;20236;-80
2022/09/11 10:47:44;;;;;;;3.97;3.65;;;;;;;;;;5072065;28;20197;-79
2022/09/11 10:50:24;;;;;;;7.10;4.55;;;;;;;;;;5072292;28;20225;-81
2022/09/11 10:53:03;;;;;;;6.32;5.72;;;;;;;;;;5072417;28;20288;-79
2022/09/11 10:55:33;;;;;;;4.75;4.43;;;;;;;;;;5072166;28;20208;-81
2022/09/11 10:58:05;;;;;;;4.53;3.95;;;;;;;;;;5071697;28;20672;-79
2022/09/11 11:00:37;;;;;;;6.00;4.88;;;;;;;;;;5071778;28;20224;-79
2022/09/11 11:03:08;;;;;;;4.50;4.05;;;;;;;;;;5072116;28;20272;-80
2022/09/11 11:05:45;;;;;;;8.93;5.07;;;;;;;;;;5072229;28;20292;-79
2022/09/11 11:08:37;;;;;;;4.88;4.43;;;;;;;;;;5071759;28;20292;-78
2022/09/11 11:11:21;;;;;;;4.18;3.83;;;;;;;;;;5071756;28;20197;-79
2022/09/11 11:14:22;;;;;;;3.90;3.58;;;;;;;;;;5072110;28;20201;-80
2022/09/11 11:17:02;;;;;;;3.38;3.08;;;;;;;;;;5071683;28;20291;-79
2022/09/11 11:19:57;;;;;;;10.43;4.03;;;;;;;;;;5071530;28;20225;-79
2022/09/11 11:22:44;;;;;;;5.15;4.65;;;;;;;;;;5071813;28;20669;-80
2022/09/11 11:25:20;;;;;;;4.93;4.43;;;;;;;;;;5071725;28;20197;-79
2022/09/11 11:28:07;;;;;;;5.90;5.30;;;;;;;;;;5071408;28;20201;-79
2022/09/11 11:30:40;;;;;;;4.75;4.35;;;;;;;;;;5071711;28;20217;-79
2022/09/11 11:33:34;;;;;;;4.45;4.05;;;;;;;;;;5071891;28;20204;-79
2022/09/11 11:36:05;;;;;;;3.85;3.55;;;;;;;;;;5071698;28;20669;-79
2022/09/11 11:38:39;;;;;;;5.63;5.13;;;;;;;;;;5071436;28;20195;-79
2022/09/11 11:41:10;;;;;;;4.50;3.53;;;;;;;;;;5071325;28;20228;-79
2022/09/11 11:43:41;;;;;;;5.85;5.35;;;;;;;;;;5071653;28;20202;-79
2022/09/11 11:46:14;;;;;;;4.05;3.65;;;;;;;;;;5071020;28;20236;-79
2022/09/11 11:48:50;;;;;;;5.15;4.65;;;;;;;;;;5071435;28;20217;-79
2022/09/11 11:51:19;;;;;;;4.78;4.38;;;;;;;;;;5071287;28;20192;-79
2022/09/11 11:53:58;;;;;;;4.25;3.85;;;;;;;;;;5071899;28;20207;-79
2022/09/11 11:56:34;;;;;;;4.20;3.80;;;;;;;;;;5071219;28;20266;-79
2022/09/11 11:59:05;;;;;;;5.22;4.40;;;;;;;;;;5074881;28;20256;-80
2022/09/11 12:01:40;;;;;;;6.53;5.25;;;;;;;;;;5074759;28;20244;-81
2022/09/11 12:04:21;;;;;;;4.88;4.45;;;;;;;;;;5075444;28;20634;-79
2022/09/11 12:06:49;;;;;;;6.82;4.85;;;;;;;;;;5075146;28;20254;-79
2022/09/11 12:09:17;;;;;;;5.65;5.15;;;;;;;;;;5074911;28;20221;-79
2022/09/11 12:11:50;;;;;;;4.60;4.20;;;;;;;;;;5075818;28;20220;-79
2022/09/11 12:14:28;;;;;;;5.03;4.63;;;;;;;;;;5075309;28;20212;-79
2022/09/11 12:16:57;;;;;;;6.22;5.20;;;;;;;;;;5075286;28;20204;-80
2022/09/11 12:19:26;;;;;;;5.28;4.78;;;;;;;;;;5074750;28;20307;-80
2022/09/11 12:22:13;;;;;;;8.60;6.32;;;;;;;;;;5074258;28;20227;-79
2022/09/11 12:24:57;;;;;;;8.45;6.05;;;;;;;;;;5074885;28;20274;-80
2022/09/11 12:28:09;;;;;;;7.70;5.95;;;;;;;;;;5075184;28;20228;-80
2022/09/11 12:30:58;;;;;;;4.35;3.97;;;;;;;;;;5074749;28;20708;-81
2022/09/11 12:33:54;;;;;;;4.15;3.75;;;;;;;;;;5074655;28;20332;-80
2022/09/11 12:36:48;;;;;;;3.97;3.65;;;;;;;;;;5073331;28;20681;-79
2022/09/11 12:39:24;;;;;;;4.70;4.20;;;;;;;;;;5074505;28;20282;-80
2022/09/11 12:41:52;;;;;;;4.55;4.15;;;;;;;;;;5074589;28;20221;-79
2022/09/11 12:44:32;;;;;;;4.50;4.10;;;;;;;;;;5074523;28;20661;-80
2022/09/11 12:47:15;;;;;;;3.25;3.03;;;;;;;;;;5074382;28;20197;-79
2022/09/11 12:49:51;;;;;;;3.75;3.33;;;;;;;;;;5074206;28;20254;-79
2022/09/11 12:52:39;;;;;;;3.08;2.65;;;;;;;;;;5074595;28;20318;-79
2022/09/11 12:55:32;;;;;;;3.70;2.10;;;;;;;;;;5074746;28;20196;-79
2022/09/11 12:58:02;;;;;;;2.28;2.08;;;;;;;;;;5074170;28;20590;-79
2022/09/11 13:00:37;;;;;;;2.65;2.40;;;;;;;;;;5074213;28;20217;-78
2022/09/11 13:03:06;;;;;;;2.70;2.50;;;;;;;;;;5074090;28;20201;-78
2022/09/11 13:05:36;;;;;;;4.15;2.38;;;;;;;;;;5074378;28;20201;-78
2022/09/11 13:08:14;;;;;;;3.78;3.17;;;;;;;;;;5073948;28;20205;-79
2022/09/11 13:10:42;;;;;;;3.20;2.90;;;;;;;;;;5074746;28;20328;-78
2022/09/11 13:13:43;;;;;;;2.70;2.50;;;;;;;;;;5074112;28;20223;-79
2022/09/11 13:16:24;;;;;;;2.83;2.42;;;;;;;;;;5073926;28;20200;-78
2022/09/11 13:18:56;;;;;;;3.58;2.97;;;;;;;;;;5074196;28;20235;-78
2022/09/11 13:21:25;;;;;;;3.28;2.95;;;;;;;;;;5073688;28;20225;-78
2022/09/11 13:23:55;;;;;;;3.80;3.47;;;;;;;;;;5073862;28;20700;-78
2022/09/11 13:26:29;;;;;;;4.65;4.05;;;;;;;;;;5073424;28;20243;-78
2022/09/11 13:28:59;;;;;;;4.53;4.10;;;;;;;;;;5073526;28;20216;-78
2022/09/11 13:31:33;;;;;;;4.75;4.32;;;;;;;;;;5073507;28;20201;-78
2022/09/11 13:34:03;;;;;;;4.05;3.65;;;;;;;;;;5073128;28;20677;-78
2022/09/11 13:36:32;;;;;;;3.75;3.42;;;;;;;;;;5072869;28;20236;-78
2022/09/11 13:39:02;;;;;;;3.20;2.90;;;;;;;;;;5073130;28;20232;-78
2022/09/11 13:41:32;;;;;;;3.67;2.70;;;;;;;;;;5072771;28;20221;-78
2022/09/11 13:44:01;;;;;;;3.38;3.15;;;;;;;;;;5072967;28;20208;-78
2022/09/11 13:46:31;;;;;;;3.42;3.10;;;;;;;;;;5073249;28;20201;-78
2022/09/11 13:49:20;;;;;;;3.67;2.97;;;;;;;;;;5073317;28;20637;-78
2022/09/11 13:51:49;;;;;;;2.90;2.55;;;;;;;;;;5050898;28;20201;-78
2022/09/11 13:54:27;;;;;;;2.20;2.05;;;;;;;;;;5053534;28;20292;-78
2022/09/11 13:57:14;;;;;;;3.10;2.80;;;;;;;;;;5060304;28;20206;-78
2022/09/11 13:59:48;;;;;;;2.33;2.22;;;;;;;;;;5052820;28;20613;-78
2022/09/11 14:02:29;;;;;;;2.85;2.58;;;;;;;;;;5052598;28;20276;-78
2022/09/11 14:05:08;;;;;;;2.38;2.17;;;;;;;;;;5052518;28;20224;-78
2022/09/11 14:07:47;;;;;;;2.65;2.45;;;;;;;;;;5052638;28;20202;-78
2022/09/11 14:10:29;;;;;;;2.90;2.63;;;;;;;;;;5053044;28;20233;-78
2022/09/11 14:13:05;;;;;;;2.53;2.33;;;;;;;;;;5052734;28;20204;-78
2022/09/11 14:15:38;;;;;;;3.78;3.08;;;;;;;;;;5052674;28;20212;-78
2022/09/11 14:18:14;;;;;;;3.65;3.35;;;;;;;;;;5052508;28;20923;-78
2022/09/11 14:20:43;;;;;;;5.15;3.33;;;;;;;;;;5051553;28;20237;-78
2022/09/11 14:23:18;;;;;;;5.65;4.03;;;;;;;;;;5052837;28;20228;-78
2022/09/11 14:26:11;;;;;;;3.88;3.58;;;;;;;;;;5060335;28;20227;-77
2022/09/11 14:28:48;;;;;;;3.88;3.53;;;;;;;;;;5072315;28;20247;-78
2022/09/11 14:31:31;;;;;;;4.90;4.40;;;;;;;;;;5072506;28;20828;-78
2022/09/11 14:34:17;;;;;;;3.28;2.97;;;;;;;;;;5072644;28;20255;-79
2022/09/11 14:36:52;;;;;;;3.10;2.80;;;;;;;;;;5071927;28;20216;-78
2022/09/11 14:39:27;;;;;;;2.92;2.72;;;;;;;;;;5072312;28;20705;-78
2022/09/11 14:41:56;;;;;;;4.03;3.20;;;;;;;;;;5072379;28;20228;-78
2022/09/11 14:44:25;;;;;;;4.05;3.03;;;;;;;;;;5072543;28;20204;-79
2022/09/11 14:46:53;;;;;;;2.90;2.70;;;;;;;;;;5071846;28;20673;-78
2022/09/11 14:49:21;;;;;;;3.63;3.33;;;;;;;;;;5072149;28;20231;-78
2022/09/11 14:51:56;;;;;;;3.30;3.00;;;;;;;;;;5072253;28;20685;-79
2022/09/11 14:54:25;;;;;;;3.72;3.42;;;;;;;;;;5072562;28;20208;-77
2022/09/11 14:56:52;;;;;;;3.10;2.80;;;;;;;;;;5071879;28;20705;-78
2022/09/11 14:59:21;;;;;;;3.15;2.90;;;;;;;;;;5064994;28;20297;-78
2022/09/11 15:01:50;;;;;;;2.40;2.20;;;;;;;;;;5032017;28;20297;-78
2022/09/11 15:04:21;;;;;;;3.70;3.33;;;;;;;;;;5032392;28;20206;-78
2022/09/11 15:06:54;;;;;;;2.28;2.13;;;;;;;;;;5035159;28;20209;-79
2022/09/11 15:09:21;;;;;;;3.70;3.33;;;;;;;;;;5034964;28;20229;-78